createdAt,value
2019-05-12T00:01:13.915Z,64.63
2019-05-12T00:03:45.124Z,65.17
2019-05-12T00:06:17.530Z,65.38
2019-05-12T00:08:48.752Z,65.52
2019-05-12T00:11:19.579Z,65.80
2019-05-12T00:13:50.162Z,66.38
2019-05-12T00:16:20.469Z,66.39
2019-05-12T00:18:51.499Z,66.65
2019-05-12T00:21:23.105Z,65.68
2019-05-12T00:24:11.656Z,65.51
2019-05-12T00:26:42.976Z,66.18
2019-05-12T00:29:13.533Z,66.17
2019-05-12T00:31:44.349Z,66.25
2019-05-12T00:34:15.308Z,66.04
2019-05-12T00:36:48.344Z,66.19
2019-05-12T00:39:19.378Z,66.37
2019-05-12T00:41:49.588Z,66.84
2019-05-12T00:44:20.083Z,66.96
2019-05-12T00:46:50.400Z,66.73
2019-05-12T00:49:21.141Z,66.53
2019-05-12T00:51:52.073Z,66.95
2019-05-12T00:54:22.508Z,66.67
2019-05-12T00:56:53.949Z,66.94
2019-05-12T00:59:24.290Z,67.14
2019-05-12T01:01:58.487Z,67.04
2019-05-12T01:04:29.370Z,67.33
2019-05-12T01:06:59.705Z,66.73
2019-05-12T01:09:30.269Z,67.24
2019-05-12T01:12:00.806Z,67.10
2019-05-12T01:14:32.208Z,67.07
2019-05-12T01:17:02.569Z,67.18
2019-05-12T01:19:34.016Z,67.72
2019-05-12T01:22:05.349Z,67.35
2019-05-12T01:24:37.891Z,67.56
2019-05-12T01:27:08.664Z,67.57
2019-05-12T01:29:39.918Z,67.71
2019-05-12T01:32:12.388Z,67.80
2019-05-12T01:34:43.740Z,67.86
2019-05-12T01:37:23.317Z,67.62
2019-05-12T01:39:59.708Z,67.64
2019-05-12T01:42:28.655Z,67.72
2019-05-12T01:45:00.182Z,67.79
2019-05-12T01:47:30.729Z,67.73
2019-05-12T01:50:03.077Z,67.80
2019-05-12T01:52:33.708Z,67.97
2019-05-12T01:55:07.975Z,67.89
2019-05-12T01:57:38.520Z,67.86
2019-05-12T02:00:12.488Z,67.93
2019-05-12T02:02:43.278Z,68.22
2019-05-12T02:05:15.360Z,68.27
2019-05-12T02:07:48.068Z,67.99
2019-05-12T02:10:20.210Z,68.10
2019-05-12T02:12:51.569Z,68.28
2019-05-12T02:15:23.234Z,68.02
2019-05-12T02:17:53.510Z,68.01
2019-05-12T02:20:24.983Z,67.89
2019-05-12T02:22:58.322Z,68.55
2019-05-12T02:25:29.010Z,68.81
2019-05-12T02:27:59.524Z,69.04
2019-05-12T02:30:30.965Z,69.17
2019-05-12T02:33:04.942Z,69.16
2019-05-12T02:35:35.641Z,69.24
2019-05-12T02:38:06.855Z,69.22
2019-05-12T02:40:37.818Z,68.99
2019-05-12T02:43:08.126Z,68.77
2019-05-12T02:45:39.288Z,69.26
2019-05-12T02:48:09.593Z,68.59
2019-05-12T02:50:45.204Z,68.74
2019-05-12T02:53:15.000Z,68.77
2019-05-12T02:55:47.689Z,69.08
2019-05-12T02:58:19.609Z,68.86
2019-05-12T03:00:50.321Z,68.70
2019-05-12T03:03:25.111Z,68.94
2019-05-12T03:05:59.360Z,68.90
2019-05-12T03:08:34.843Z,68.90
2019-05-12T03:11:06.101Z,68.94
2019-05-12T03:13:36.894Z,68.83
2019-05-12T03:16:09.002Z,69.12
2019-05-12T03:18:39.376Z,69.06
2019-05-12T03:21:10.014Z,69.22
2019-05-12T03:23:40.728Z,69.17
2019-05-12T03:26:15.090Z,69.06
2019-05-12T03:28:44.737Z,69.19
2019-05-12T03:31:18.308Z,69.24
2019-05-12T03:33:52.718Z,69.13
2019-05-12T03:36:20.687Z,68.98
2019-05-12T03:38:51.575Z,68.82
2019-05-12T03:41:24.882Z,68.77
2019-05-12T03:43:55.114Z,68.46
2019-05-12T03:46:25.611Z,68.56
2019-05-12T03:48:55.851Z,68.68
2019-05-12T03:51:26.664Z,69.12
2019-05-12T03:53:57.471Z,69.46
2019-05-12T03:56:27.825Z,68.98
2019-05-12T03:58:59.095Z,68.93
2019-05-12T04:01:29.409Z,68.80
2019-05-12T04:04:00.202Z,68.67
2019-05-12T04:06:34.599Z,68.78
2019-05-12T04:09:07.357Z,69.13
2019-05-12T04:11:38.112Z,69.28
2019-05-12T04:14:09.711Z,68.95
2019-05-12T04:16:40.493Z,68.35
2019-05-12T04:19:14.277Z,68.50
2019-05-12T04:21:44.746Z,68.36
2019-05-12T04:24:16.405Z,68.46
2019-05-12T04:26:46.746Z,68.58
2019-05-12T04:29:17.793Z,68.46
2019-05-12T04:31:48.075Z,68.49
2019-05-12T04:34:19.268Z,68.71
2019-05-12T04:36:51.008Z,68.78
2019-05-12T04:39:25.311Z,68.73
2019-05-12T04:41:55.336Z,68.60
2019-05-12T04:44:25.892Z,68.53
2019-05-12T04:46:56.355Z,68.42
2019-05-12T04:49:26.610Z,68.25
2019-05-12T04:51:57.785Z,68.23
2019-05-12T04:54:29.781Z,67.80
2019-05-12T04:57:00.311Z,67.09
2019-05-12T04:59:34.313Z,65.38
2019-05-12T05:02:05.441Z,63.37
2019-05-12T05:04:35.326Z,61.37
2019-05-12T05:07:05.914Z,58.91
2019-05-12T05:09:36.667Z,57.57
2019-05-12T05:12:07.025Z,55.86
2019-05-12T05:14:37.528Z,54.02
2019-05-12T05:17:07.771Z,52.73
2019-05-12T05:19:38.169Z,51.34
2019-05-12T05:22:08.699Z,49.53
2019-05-12T05:24:39.019Z,48.74
2019-05-12T05:27:09.662Z,47.76
2019-05-12T05:29:40.017Z,46.60
2019-05-12T05:32:10.752Z,44.96
2019-05-12T05:34:45.925Z,44.70
2019-05-12T05:37:14.508Z,43.61
2019-05-12T05:39:49.697Z,43.35
2019-05-12T05:42:22.104Z,43.09
2019-05-12T05:44:54.178Z,41.86
2019-05-12T05:47:27.139Z,41.17
2019-05-12T05:49:55.664Z,40.62
2019-05-12T05:52:33.159Z,40.08
2019-05-12T05:54:59.371Z,39.37
2019-05-12T05:57:29.922Z,38.66
2019-05-12T06:00:00.309Z,38.43
2019-05-12T06:02:33.744Z,38.00
2019-05-12T06:05:04.420Z,37.52
2019-05-12T06:07:39.068Z,37.15
2019-05-12T06:10:10.009Z,36.59
2019-05-12T06:12:45.498Z,36.07
2019-05-12T06:15:13.636Z,35.49
2019-05-12T06:17:44.571Z,35.18
2019-05-12T06:20:15.207Z,34.62
2019-05-12T06:22:48.732Z,34.50
2019-05-12T06:25:17.681Z,34.20
2019-05-12T06:27:51.076Z,33.92
2019-05-12T06:30:20.823Z,33.36
2019-05-12T06:32:52.400Z,32.80
2019-05-12T06:35:24.410Z,32.35
2019-05-12T06:38:01.400Z,32.04
2019-05-12T06:40:30.836Z,31.90
2019-05-12T06:43:00.234Z,31.55
2019-05-12T06:45:36.540Z,31.64
2019-05-12T06:48:03.804Z,31.41
2019-05-12T06:50:39.233Z,30.89
2019-05-12T06:53:07.899Z,30.40
2019-05-12T06:55:39.346Z,30.65
2019-05-12T06:58:10.741Z,30.66
2019-05-12T07:00:43.594Z,30.65
2019-05-12T07:03:14.298Z,30.53
2019-05-12T07:05:45.471Z,30.75
2019-05-12T07:08:17.877Z,30.77
2019-05-12T07:11:00.890Z,30.42
2019-05-12T07:13:28.282Z,29.93
2019-05-12T07:15:56.184Z,30.57
2019-05-12T07:18:32.957Z,30.60
2019-05-12T07:20:58.752Z,30.89
2019-05-12T07:23:30.178Z,31.23
2019-05-12T07:26:06.729Z,33.14
2019-05-12T07:28:36.326Z,33.56
2019-05-12T07:31:07.042Z,33.77
2019-05-12T07:33:41.378Z,33.90
2019-05-12T07:36:13.623Z,33.85
2019-05-12T07:38:45.740Z,34.34
2019-05-12T07:41:16.524Z,34.35
2019-05-12T07:43:53.993Z,34.26
2019-05-12T07:46:21.090Z,34.01
2019-05-12T07:48:53.854Z,34.80
2019-05-12T07:51:24.547Z,34.88
2019-05-12T07:53:58.859Z,34.46
2019-05-12T07:56:32.621Z,35.21
2019-05-12T07:58:59.732Z,35.23
2019-05-12T08:01:35.769Z,35.10
2019-05-12T08:04:04.543Z,35.34
2019-05-12T08:06:41.737Z,36.25
2019-05-12T08:09:08.926Z,35.99
2019-05-12T08:11:40.047Z,35.72
2019-05-12T08:14:13.698Z,35.88
2019-05-12T08:16:43.712Z,36.40
2019-05-12T08:19:23.564Z,36.78
2019-05-12T08:21:49.107Z,36.20
2019-05-12T08:24:18.841Z,35.63
2019-05-12T08:26:58.739Z,35.90
2019-05-12T08:29:24.353Z,35.10
2019-05-12T08:31:54.989Z,35.68
2019-05-12T08:34:25.401Z,36.58
2019-05-12T08:36:57.936Z,37.31
2019-05-12T08:39:28.122Z,37.27
2019-05-12T08:41:59.502Z,37.13
2019-05-12T08:44:33.828Z,36.42
2019-05-12T08:47:03.941Z,37.28
2019-05-12T08:49:50.124Z,39.04
2019-05-12T08:52:07.533Z,39.04
2019-05-12T08:54:39.569Z,38.55
2019-05-12T08:57:10.339Z,37.50
2019-05-12T08:59:40.754Z,37.79
2019-05-12T09:02:14.007Z,37.53
2019-05-12T09:04:51.500Z,36.84
2019-05-12T09:07:17.867Z,36.87
2019-05-12T09:09:49.003Z,36.51
2019-05-12T09:12:19.397Z,35.72
2019-05-12T09:14:49.690Z,36.29
2019-05-12T09:17:20.085Z,37.76
2019-05-12T09:19:55.040Z,38.11
2019-05-12T09:22:24.149Z,38.97
2019-05-12T09:24:58.338Z,38.45
2019-05-12T09:27:28.744Z,37.93
2019-05-12T09:30:07.587Z,37.25
2019-05-12T09:32:33.372Z,37.88
2019-05-12T09:35:04.226Z,37.26
2019-05-12T09:37:38.588Z,36.71
2019-05-12T09:40:08.777Z,35.56
2019-05-12T09:42:41.196Z,35.76
2019-05-12T09:45:13.595Z,34.51
2019-05-12T09:47:46.198Z,35.21
2019-05-12T09:50:20.335Z,34.60
2019-05-12T09:52:52.957Z,34.30
2019-05-12T09:55:24.806Z,34.62
2019-05-12T09:57:55.352Z,34.72
2019-05-12T10:00:30.499Z,34.70
2019-05-12T10:03:00.845Z,33.50
2019-05-12T10:05:37.551Z,32.62
2019-05-12T10:08:04.834Z,32.83
2019-05-12T10:10:40.293Z,32.23
2019-05-12T10:13:07.832Z,32.48
2019-05-12T10:15:38.367Z,32.74
2019-05-12T10:18:11.076Z,33.74
2019-05-12T10:20:41.177Z,33.59
2019-05-12T10:23:18.217Z,32.96
2019-05-12T10:25:44.867Z,33.90
2019-05-12T10:28:16.246Z,33.29
2019-05-12T10:30:52.083Z,33.19
2019-05-12T10:33:18.809Z,33.44
2019-05-12T10:35:49.164Z,33.25
2019-05-12T10:38:19.481Z,33.09
2019-05-12T10:40:50.465Z,31.24
2019-05-12T10:43:20.780Z,29.93
2019-05-12T10:45:53.787Z,31.06
2019-05-12T10:48:23.959Z,31.22
2019-05-12T10:50:55.470Z,31.73
2019-05-12T10:53:25.798Z,31.35
2019-05-12T10:55:57.248Z,30.92
2019-05-12T10:58:27.780Z,30.33
2019-05-12T11:01:05.392Z,28.96
2019-05-12T11:03:30.254Z,28.57
2019-05-12T11:06:03.190Z,28.20
2019-05-12T11:08:33.390Z,29.27
2019-05-12T11:11:04.402Z,29.40
2019-05-12T11:13:34.663Z,28.70
2019-05-12T11:16:05.359Z,28.48
2019-05-12T11:18:35.679Z,29.52
2019-05-12T11:21:06.415Z,30.43
2019-05-12T11:23:36.751Z,29.52
2019-05-12T11:26:07.790Z,27.89
2019-05-12T11:28:38.104Z,28.49
2019-05-12T11:31:08.824Z,28.35
2019-05-12T11:33:39.154Z,28.67
2019-05-12T11:36:10.077Z,28.42
2019-05-12T11:38:40.430Z,28.60
2019-05-12T11:41:18.403Z,29.11
2019-05-12T11:43:43.511Z,29.30
2019-05-12T11:46:14.200Z,29.29
2019-05-12T11:48:47.722Z,28.84
2019-05-12T11:51:20.763Z,29.50
2019-05-12T11:53:50.214Z,29.85
2019-05-12T11:56:20.538Z,29.09
2019-05-12T11:58:54.152Z,28.32
2019-05-12T12:01:26.682Z,27.64
2019-05-12T12:03:57.251Z,28.29
2019-05-12T12:06:27.943Z,28.33
2019-05-12T12:08:59.558Z,26.22
2019-05-12T12:11:30.323Z,26.58
2019-05-12T12:14:08.434Z,27.32
2019-05-12T12:16:34.098Z,28.75
2019-05-12T12:19:05.772Z,29.19
2019-05-12T12:21:40.516Z,28.30
2019-05-12T12:24:08.415Z,28.72
2019-05-12T12:26:38.861Z,27.60
2019-05-12T12:29:10.616Z,27.86
2019-05-12T12:31:48.518Z,27.64
2019-05-12T12:34:23.807Z,27.76
2019-05-12T12:36:54.367Z,27.18
2019-05-12T12:39:26.513Z,27.54
2019-05-12T12:42:00.446Z,27.31
2019-05-12T12:44:29.604Z,27.47
2019-05-12T12:47:02.438Z,28.05
2019-05-12T12:49:33.958Z,27.84
2019-05-12T12:52:04.586Z,28.52
2019-05-12T12:54:35.995Z,29.05
2019-05-12T12:57:09.969Z,28.46
2019-05-12T12:59:45.431Z,27.85
2019-05-12T13:02:14.274Z,28.27
2019-05-12T13:04:50.038Z,28.44
2019-05-12T13:07:18.345Z,28.13
2019-05-12T13:09:49.133Z,28.42
2019-05-12T13:12:21.545Z,28.33
2019-05-12T13:14:53.201Z,28.34
2019-05-12T13:17:29.066Z,29.20
2019-05-12T13:19:58.613Z,29.45
2019-05-12T13:22:29.751Z,29.53
2019-05-12T13:25:06.508Z,29.70
2019-05-12T13:27:36.719Z,29.85
2019-05-12T13:30:18.805Z,30.16
2019-05-12T13:32:41.119Z,29.57
2019-05-12T13:35:16.239Z,29.21
2019-05-12T13:37:44.540Z,29.21
2019-05-12T13:40:15.717Z,29.70
2019-05-12T13:42:46.910Z,30.03
2019-05-12T13:45:17.720Z,29.99
2019-05-12T13:47:48.279Z,29.86
2019-05-12T13:50:26.348Z,28.88
2019-05-12T13:52:54.247Z,29.37
2019-05-12T13:55:24.731Z,28.95
2019-05-12T13:57:57.776Z,28.62
2019-05-12T14:00:27.313Z,29.14
2019-05-12T14:03:04.799Z,29.18
2019-05-12T14:05:32.458Z,29.26
2019-05-12T14:08:03.935Z,29.09
2019-05-12T14:10:37.690Z,29.02
2019-05-12T14:13:14.012Z,28.54
2019-05-12T14:15:44.483Z,29.21
2019-05-12T14:18:20.442Z,28.64
2019-05-12T14:20:50.825Z,28.74
2019-05-12T14:23:20.503Z,28.41
2019-05-12T14:25:50.808Z,28.57
2019-05-12T14:28:23.436Z,28.30
2019-05-12T14:30:54.507Z,27.88
2019-05-12T14:33:29.896Z,27.93
2019-05-12T14:35:58.592Z,28.04
2019-05-12T14:38:29.918Z,28.56
2019-05-12T14:41:01.347Z,28.55
2019-05-12T14:43:34.170Z,29.08
2019-05-12T14:46:06.344Z,29.60
2019-05-12T14:48:40.161Z,29.95
2019-05-12T14:51:09.796Z,30.13
2019-05-12T14:53:41.410Z,29.30
2019-05-12T14:56:13.914Z,29.81
2019-05-12T14:58:44.287Z,29.92
2019-05-12T15:01:14.596Z,29.98
2019-05-12T15:03:47.841Z,29.62
2019-05-12T15:06:19.415Z,29.12
2019-05-12T15:08:51.233Z,30.05
2019-05-12T15:11:23.606Z,30.67
2019-05-12T15:13:55.357Z,30.69
2019-05-12T15:16:25.662Z,30.56
2019-05-12T15:18:56.717Z,30.32
2019-05-12T15:21:31.161Z,29.61
2019-05-12T15:23:59.472Z,29.43
2019-05-12T15:26:30.243Z,28.95
2019-05-12T15:29:05.397Z,29.08
2019-05-12T15:31:33.739Z,28.57
2019-05-12T15:34:05.725Z,28.87
2019-05-12T15:36:36.416Z,28.22
2019-05-12T15:39:09.313Z,28.53
2019-05-12T15:41:39.656Z,27.62
2019-05-12T15:44:10.530Z,28.55
2019-05-12T15:46:43.453Z,29.18
2019-05-12T15:49:13.596Z,29.50
2019-05-12T15:51:51.263Z,29.76
2019-05-12T15:54:16.676Z,29.99
2019-05-12T15:56:47.000Z,30.39
2019-05-12T15:59:17.809Z,30.19
2019-05-12T16:01:48.176Z,30.51
2019-05-12T16:04:19.526Z,30.13
2019-05-12T16:06:53.570Z,29.87
2019-05-12T16:09:23.776Z,29.25
2019-05-12T16:11:55.308Z,29.29
2019-05-12T16:14:30.630Z,29.54
2019-05-12T16:16:58.200Z,29.77
2019-05-12T16:19:28.755Z,30.36
2019-05-12T16:21:59.062Z,30.57
2019-05-12T16:24:30.327Z,30.60
2019-05-12T16:27:00.623Z,30.45
2019-05-12T16:29:34.002Z,30.59
2019-05-12T16:32:05.769Z,30.67
2019-05-12T16:34:45.002Z,30.72
2019-05-12T16:37:09.450Z,30.56
2019-05-12T16:39:46.593Z,30.33
2019-05-12T16:42:14.020Z,30.18
2019-05-12T16:44:44.635Z,29.79
2019-05-12T16:47:22.186Z,30.34
2019-05-12T16:49:48.062Z,30.91
2019-05-12T16:52:19.404Z,30.77
2019-05-12T16:54:54.062Z,30.68
2019-05-12T16:57:24.567Z,30.30
2019-05-12T17:00:02.342Z,30.25
2019-05-12T17:02:39.408Z,29.25
2019-05-12T17:05:06.534Z,30.08
2019-05-12T17:07:34.426Z,29.87
2019-05-12T17:10:11.750Z,30.21
2019-05-12T17:12:39.917Z,30.29
2019-05-12T17:15:11.374Z,30.41
2019-05-12T17:17:44.679Z,30.79
2019-05-12T17:20:16.717Z,30.88
2019-05-12T17:22:54.594Z,30.95
2019-05-12T17:25:19.411Z,30.90
2019-05-12T17:27:51.332Z,31.09
2019-05-12T17:30:23.913Z,31.19
2019-05-12T17:33:00.656Z,31.30
2019-05-12T17:35:31.714Z,31.20
2019-05-12T17:38:00.135Z,31.37
2019-05-12T17:40:30.664Z,31.25
2019-05-12T17:43:09.285Z,31.42
2019-05-12T17:45:35.711Z,31.56
2019-05-12T17:48:07.945Z,31.54
2019-05-12T17:50:40.492Z,31.50
2019-05-12T17:53:14.097Z,31.03
2019-05-12T17:55:50.797Z,30.71
2019-05-12T17:58:17.029Z,30.39
2019-05-12T18:00:51.854Z,30.91
2019-05-12T18:03:22.076Z,30.97
2019-05-12T18:05:53.450Z,31.46
2019-05-12T18:08:32.512Z,31.27
2019-05-12T18:10:56.732Z,31.05
2019-05-12T18:13:28.209Z,31.56
2019-05-12T18:16:03.585Z,31.13
2019-05-12T18:18:37.942Z,31.17
2019-05-12T18:21:05.320Z,31.10
2019-05-12T18:23:37.073Z,30.72
2019-05-12T18:26:11.529Z,30.86
2019-05-12T18:28:39.666Z,30.78
2019-05-12T18:31:10.823Z,30.55
2019-05-12T18:33:48.786Z,30.74
2019-05-12T18:36:14.424Z,31.21
2019-05-12T18:38:45.314Z,31.40
2019-05-12T18:41:16.036Z,31.59
2019-05-12T18:43:46.509Z,31.53
2019-05-12T18:46:17.041Z,31.79
2019-05-12T18:48:54.248Z,32.12
2019-05-12T18:51:23.622Z,32.79
2019-05-12T18:53:53.959Z,33.34
2019-05-12T18:56:25.613Z,33.22
2019-05-12T18:59:01.985Z,33.76
2019-05-12T19:01:29.682Z,34.65
2019-05-12T19:04:03.562Z,35.04
2019-05-12T19:06:33.917Z,35.02
2019-05-12T19:09:06.903Z,35.31
2019-05-12T19:11:41.982Z,36.16
2019-05-12T19:14:10.349Z,36.48
2019-05-12T19:16:43.665Z,36.91
2019-05-12T19:19:18.401Z,36.94
2019-05-12T19:21:58.517Z,36.91
2019-05-12T19:24:21.600Z,37.37
2019-05-12T19:26:54.127Z,37.42
2019-05-12T19:29:29.646Z,37.88
2019-05-12T19:31:58.301Z,37.97
2019-05-12T19:34:31.797Z,38.25
2019-05-12T19:37:00.914Z,38.92
2019-05-12T19:39:33.866Z,38.99
2019-05-12T19:42:04.010Z,39.70
2019-05-12T19:44:35.026Z,39.53
2019-05-12T19:47:05.967Z,39.94
2019-05-12T19:49:46.178Z,40.40
2019-05-12T19:52:11.068Z,40.35
2019-05-12T19:54:44.075Z,40.32
2019-05-12T19:57:22.039Z,41.14
2019-05-12T19:59:50.689Z,41.44
2019-05-12T20:02:20.489Z,41.00
2019-05-12T20:04:51.995Z,40.94
2019-05-12T20:07:25.943Z,41.63
2019-05-12T20:10:00.571Z,42.09
2019-05-12T20:12:29.049Z,41.81
2019-05-12T20:15:01.357Z,41.45
2019-05-12T20:17:33.916Z,41.95
2019-05-12T20:20:06.334Z,42.17
2019-05-12T20:22:37.921Z,42.76
2019-05-12T20:25:08.572Z,42.71
2019-05-12T20:27:39.891Z,42.73
2019-05-12T20:30:18.723Z,43.26
2019-05-12T20:32:44.740Z,43.49
2019-05-12T20:35:15.344Z,43.55
2019-05-12T20:37:52.919Z,43.59
2019-05-12T20:40:18.025Z,43.90
2019-05-12T20:43:07.261Z,43.61
2019-05-12T20:45:25.822Z,43.98
2019-05-12T20:47:55.180Z,43.69
2019-05-12T20:50:32.704Z,43.77
2019-05-12T20:52:59.188Z,43.85
2019-05-12T20:55:35.557Z,44.05
2019-05-12T20:58:04.480Z,44.11
2019-05-12T21:00:38.926Z,44.15
2019-05-12T21:03:08.891Z,44.24
2019-05-12T21:05:40.744Z,44.36
2019-05-12T21:08:15.237Z,44.65
2019-05-12T21:10:44.765Z,44.51
2019-05-12T21:13:20.244Z,44.07
2019-05-12T21:15:48.648Z,44.40
2019-05-12T21:18:20.249Z,44.58
2019-05-12T21:20:52.149Z,44.48
2019-05-12T21:23:24.169Z,44.24
2019-05-12T21:25:58.220Z,44.39
2019-05-12T21:28:27.058Z,44.56
2019-05-12T21:30:57.761Z,44.24
2019-05-12T21:33:31.314Z,44.07
2019-05-12T21:36:03.676Z,44.62
2019-05-12T21:38:34.624Z,44.06
2019-05-12T21:41:08.095Z,44.09
2019-05-12T21:43:37.654Z,44.11
2019-05-12T21:46:12.465Z,44.70
2019-05-12T21:48:41.545Z,45.09
2019-05-12T21:51:16.462Z,44.48
2019-05-12T21:53:50.509Z,43.72
2019-05-12T21:56:17.734Z,44.08
2019-05-12T21:58:53.711Z,43.78
2019-05-12T22:01:20.505Z,43.68
2019-05-12T22:03:58.077Z,43.59
2019-05-12T22:06:25.044Z,43.78
2019-05-12T22:09:04.900Z,43.57
2019-05-12T22:11:35.348Z,43.53
2019-05-12T22:14:07.498Z,43.23
2019-05-12T22:16:43.540Z,43.08
2019-05-12T22:19:11.931Z,43.20
2019-05-12T22:21:49.090Z,43.18
2019-05-12T22:24:16.720Z,42.90
2019-05-12T22:26:47.182Z,42.49
2019-05-12T22:29:21.260Z,42.80
2019-05-12T22:31:49.987Z,42.74
2019-05-12T22:34:27.575Z,42.46
2019-05-12T22:36:57.615Z,42.55
2019-05-12T22:39:26.886Z,42.80
2019-05-12T22:41:57.577Z,42.81
2019-05-12T22:44:28.347Z,42.77
2019-05-12T22:47:04.243Z,43.08
2019-05-12T22:49:33.903Z,43.00
2019-05-12T22:52:07.060Z,43.17
2019-05-12T22:54:40.681Z,43.32
2019-05-12T22:57:10.508Z,43.51
2019-05-12T22:59:42.667Z,43.75
2019-05-12T23:02:15.963Z,43.79
2019-05-12T23:04:46.632Z,43.88
2019-05-12T23:07:19.168Z,43.92
2019-05-12T23:09:49.197Z,44.11
2019-05-12T23:12:20.249Z,44.19
2019-05-12T23:14:56.838Z,44.29
2019-05-12T23:17:25.788Z,44.49
2019-05-12T23:19:57.407Z,44.53
2019-05-12T23:22:29.378Z,44.59
2019-05-12T23:25:03.998Z,44.74
2019-05-12T23:27:33.959Z,44.70
2019-05-12T23:30:11.127Z,45.11
2019-05-12T23:32:45.263Z,45.05
2019-05-12T23:35:14.472Z,45.39
2019-05-12T23:37:46.141Z,45.17
2019-05-12T23:40:17.027Z,45.35
2019-05-12T23:42:47.351Z,45.36
2019-05-12T23:45:18.343Z,45.50
2019-05-12T23:47:48.656Z,45.32
2019-05-12T23:50:19.910Z,45.50
2019-05-12T23:52:50.655Z,45.23
2019-05-12T23:55:24.101Z,45.35
2019-05-12T23:57:54.515Z,45.53
